Time,TemperatureF,DewpointF,PressureIn,WindDirection,WindDirectionDegrees,WindSpeedMPH,WindSpeedGustMPH,Humidity,HourlyPrecipIn,Conditions,Clouds,dailyrainin,SoftwareType,DateUTC
2013-08-30 00:02:00,73.9,70.2,29.97,NW,315,0.0,0.0,88,0.00,CLR,,0.00,WeatherDisplay:10.37,2013-08-30 05:02:00,
2013-08-30 00:07:00,73.8,70.0,29.97,NW,315,0.0,0.0,88,0.00,CLR,,0.00,WeatherDisplay:10.37,2013-08-30 05:07:00,
2013-08-30 00:12:00,73.8,70.0,29.97,NW,315,0.0,0.0,88,0.00,CLR,,0.00,WeatherDisplay:10.37,2013-08-30 05:12:00,
2013-08-30 00:17:00,73.6,69.8,29.97,NW,315,0.0,0.0,88,0.00,CLR,,0.00,WeatherDisplay:10.37,2013-08-30 05:17:00,
2013-08-30 00:22:00,73.6,69.8,29.97,NW,315,0.0,0.0,88,0.00,CLR,,0.00,WeatherDisplay:10.37,2013-08-30 05:22:00,
2013-08-30 00:27:00,73.6,69.8,29.97,NW,315,0.0,0.0,88,0.00,CLR,,0.00,WeatherDisplay:10.37,2013-08-30 05:27:00,
2013-08-30 00:32:00,73.6,70.1,29.97,NW,315,0.0,0.0,89,0.00,CLR,,0.00,WeatherDisplay:10.37,2013-08-30 05:32:00,
2013-08-30 00:37:00,73.4,69.6,29.97,NW,315,0.0,0.0,88,0.00,CLR,,0.00,WeatherDisplay:10.37,2013-08-30 05:37:00,
2013-08-30 00:42:00,73.2,69.8,29.97,NW,315,0.0,0.0,89,0.00,CLR,,0.00,WeatherDisplay:10.37,2013-08-30 05:42:00,
2013-08-30 00:47:00,73.2,69.8,29.97,NW,315,0.0,0.0,89,0.00,CLR,,0.00,WeatherDisplay:10.37,2013-08-30 05:47:00,
2013-08-30 00:52:00,73.2,69.8,29.97,NW,315,0.0,0.0,89,0.00,CLR,,0.00,WeatherDisplay:10.37,2013-08-30 05:52:00,
2013-08-30 00:57:00,73.2,69.8,29.97,NW,315,0.0,0.0,89,0.00,CLR,,0.00,WeatherDisplay:10.37,2013-08-30 05:57:00,
2013-08-30 01:02:00,73.2,69.8,29.97,NW,315,0.0,0.0,89,0.00,CLR,,0.00,WeatherDisplay:10.37,2013-08-30 06:02:00,
2013-08-30 01:07:00,73.2,69.8,29.97,NW,315,0.0,0.0,89,0.00,CLR,,0.00,WeatherDisplay:10.37,2013-08-30 06:07:00,
2013-08-30 01:12:00,73.2,69.8,29.97,NW,315,0.0,0.0,89,0.00,CLR,,0.00,WeatherDisplay:10.37,2013-08-30 06:12:00,
2013-08-30 01:17:00,73.2,69.8,29.97,NW,315,0.0,0.0,89,0.00,CLR,,0.00,WeatherDisplay:10.37,2013-08-30 06:17:00,
2013-08-30 01:22:00,73.2,69.8,29.97,NW,315,0.0,0.0,89,0.00,CLR,,0.00,WeatherDisplay:10.37,2013-08-30 06:22:00,
2013-08-30 01:27:00,73.0,69.6,29.97,NW,315,0.0,0.0,89,0.00,CLR,,0.00,WeatherDisplay:10.37,2013-08-30 06:27:00,
2013-08-30 01:32:00,73.0,69.6,29.97,NW,315,0.0,0.0,89,0.00,CLR,,0.00,WeatherDisplay:10.37,2013-08-30 06:32:00,
2013-08-30 01:37:00,73.0,69.6,29.96,NW,315,0.0,0.0,89,0.00,CLR,,0.00,WeatherDisplay:10.37,2013-08-30 06:37:00,
2013-08-30 01:42:00,73.0,69.6,29.97,NW,315,0.0,0.0,89,0.00,CLR,,0.00,WeatherDisplay:10.37,2013-08-30 06:42:00,
2013-08-30 01:47:00,73.0,69.6,29.97,NW,315,0.0,0.0,89,0.00,CLR,,0.00,WeatherDisplay:10.37,2013-08-30 06:47:00,
2013-08-30 01:52:00,73.0,69.3,29.97,NW,315,0.0,0.0,88,0.00,CLR,,0.00,WeatherDisplay:10.37,2013-08-30 06:52:00,
2013-08-30 01:57:00,73.0,69.6,29.97,NW,315,0.0,0.0,89,0.00,CLR,,0.00,WeatherDisplay:10.37,2013-08-30 06:57:00,
2013-08-30 02:02:00,73.0,69.6,29.97,NW,315,0.0,0.0,89,0.00,CLR,,0.00,WeatherDisplay:10.37,2013-08-30 07:02:00,
2013-08-30 02:07:00,73.0,69.6,29.97,NW,315,0.0,0.0,89,0.00,CLR,,0.00,WeatherDisplay:10.37,2013-08-30 07:07:00,
2013-08-30 02:12:00,72.9,69.4,29.97,NW,315,0.0,0.0,89,0.00,CLR,,0.00,WeatherDisplay:10.37,2013-08-30 07:12:00,
2013-08-30 02:17:00,72.9,69.4,29.97,NW,315,0.0,0.0,89,0.00,CLR,,0.00,WeatherDisplay:10.37,2013-08-30 07:17:00,
2013-08-30 02:22:00,72.7,69.2,29.97,NW,315,0.0,0.0,89,0.00,CLR,,0.00,WeatherDisplay:10.37,2013-08-30 07:22:00,
2013-08-30 02:27:00,72.5,69.1,29.97,NW,315,0.0,0.0,89,0.00,CLR,,0.00,WeatherDisplay:10.37,2013-08-30 07:27:00,
2013-08-30 02:32:00,72.5,69.1,29.97,NW,315,0.0,0.0,89,0.00,CLR,,0.00,WeatherDisplay:10.37,2013-08-30 07:32:00,
2013-08-30 02:37:00,72.3,68.9,29.97,NW,315,0.0,0.0,89,0.00,CLR,,0.00,WeatherDisplay:10.37,2013-08-30 07:37:00,
2013-08-30 02:42:00,72.1,68.7,29.97,NW,315,0.0,0.0,89,0.00,CLR,,0.00,WeatherDisplay:10.37,2013-08-30 07:42:00,
2013-08-30 02:47:00,72.0,68.5,29.97,NW,315,0.0,0.0,89,0.00,CLR,,0.00,WeatherDisplay:10.37,2013-08-30 07:47:00,
2013-08-30 02:52:00,72.0,68.5,29.97,NW,315,0.0,0.0,89,0.00,CLR,,0.00,WeatherDisplay:10.37,2013-08-30 07:52:00,
2013-08-30 02:57:00,72.0,68.5,29.97,NW,315,0.0,0.0,89,0.00,CLR,,0.00,WeatherDisplay:10.37,2013-08-30 07:57:00,
2013-08-30 03:02:00,72.0,68.5,29.97,NW,315,0.0,0.0,89,0.00,CLR,,0.00,WeatherDisplay:10.37,2013-08-30 08:02:00,
2013-08-30 03:07:00,72.1,68.7,29.98,NW,315,0.0,0.0,89,0.00,CLR,,0.00,WeatherDisplay:10.37,2013-08-30 08:07:00,
2013-08-30 03:13:00,72.1,68.7,29.97,NW,315,0.0,0.0,89,0.00,CLR,,0.00,WeatherDisplay:10.37,2013-08-30 08:13:00,
2013-08-30 03:18:00,72.1,68.7,29.97,NW,315,0.0,0.0,89,0.00,CLR,,0.00,WeatherDisplay:10.37,2013-08-30 08:18:00,
2013-08-30 03:23:00,72.1,68.7,29.97,NW,315,0.0,0.0,89,0.00,CLR,,0.00,WeatherDisplay:10.37,2013-08-30 08:23:00,
2013-08-30 03:28:00,72.1,68.7,29.97,NW,315,0.0,0.0,89,0.00,CLR,,0.00,WeatherDisplay:10.37,2013-08-30 08:28:00,
2013-08-30 03:33:00,72.1,68.7,29.97,NW,315,0.0,0.0,89,0.00,CLR,,0.00,WeatherDisplay:10.37,2013-08-30 08:33:00,
2013-08-30 03:38:00,72.1,68.7,29.97,NW,315,0.0,0.0,89,0.00,CLR,,0.00,WeatherDisplay:10.37,2013-08-30 08:38:00,
2013-08-30 03:43:00,72.0,68.9,29.97,NW,315,0.0,0.0,90,0.00,CLR,,0.00,WeatherDisplay:10.37,2013-08-30 08:43:00,
2013-08-30 03:48:00,72.1,69.0,29.97,NW,315,0.0,0.0,90,0.00,CLR,,0.00,WeatherDisplay:10.37,2013-08-30 08:48:00,
2013-08-30 03:53:00,72.1,69.0,29.97,NW,315,0.0,0.0,90,0.00,CLR,,0.00,WeatherDisplay:10.37,2013-08-30 08:53:00,
2013-08-30 03:58:00,72.0,68.9,29.97,NW,315,0.0,0.0,90,0.00,CLR,,0.00,WeatherDisplay:10.37,2013-08-30 08:58:00,
2013-08-30 04:03:00,72.0,68.9,29.97,NW,315,0.0,0.0,90,0.00,CLR,,0.00,WeatherDisplay:10.37,2013-08-30 09:03:00,
2013-08-30 04:08:00,72.0,68.9,29.97,NW,315,0.0,0.0,90,0.00,CLR,,0.00,WeatherDisplay:10.37,2013-08-30 09:08:00,
2013-08-30 04:13:00,72.0,68.9,29.97,NW,315,0.0,0.0,90,0.00,CLR,,0.00,WeatherDisplay:10.37,2013-08-30 09:13:00,
2013-08-30 04:18:00,72.0,68.9,29.97,NW,315,0.0,0.0,90,0.00,CLR,,0.00,WeatherDisplay:10.37,2013-08-30 09:18:00,
2013-08-30 04:23:00,72.0,68.9,29.97,NW,315,0.0,0.0,90,0.00,CLR,,0.00,WeatherDisplay:10.37,2013-08-30 09:23:00,
2013-08-30 04:28:00,71.8,68.7,29.97,NW,315,0.0,0.0,90,0.00,CLR,,0.00,WeatherDisplay:10.37,2013-08-30 09:28:00,
2013-08-30 04:33:00,71.8,68.7,29.97,NW,315,0.0,0.0,90,0.00,CLR,,0.00,WeatherDisplay:10.37,2013-08-30 09:33:00,
2013-08-30 04:38:00,71.8,68.7,29.97,NW,315,0.0,0.0,90,0.00,CLR,,0.00,WeatherDisplay:10.37,2013-08-30 09:38:00,
2013-08-30 04:43:00,71.8,68.7,29.96,NW,315,0.0,0.0,90,0.00,CLR,,0.00,WeatherDisplay:10.37,2013-08-30 09:43:00,
2013-08-30 04:48:00,71.4,68.3,29.96,NW,315,0.0,0.0,90,0.00,CLR,,0.00,WeatherDisplay:10.37,2013-08-30 09:48:00,
2013-08-30 04:53:00,71.4,68.3,29.97,NW,315,0.0,0.0,90,0.00,CLR,,0.00,WeatherDisplay:10.37,2013-08-30 09:53:00,
2013-08-30 04:58:00,71.4,68.3,29.96,NW,315,0.0,0.0,90,0.00,CLR,,0.00,WeatherDisplay:10.37,2013-08-30 09:58:00,
2013-08-30 05:03:00,71.4,68.3,29.97,NW,315,0.0,0.0,90,0.00,CLR,,0.00,WeatherDisplay:10.37,2013-08-30 10:03:00,
2013-08-30 05:08:00,71.4,68.3,29.97,NW,315,0.0,0.0,90,0.00,CLR,,0.00,WeatherDisplay:10.37,2013-08-30 10:08:00,
2013-08-30 05:13:00,71.4,68.3,29.97,NW,315,0.0,0.0,90,0.00,CLR,,0.00,WeatherDisplay:10.37,2013-08-30 10:13:00,
2013-08-30 05:18:00,71.4,68.3,29.97,NW,315,0.0,0.0,90,0.00,CLR,,0.00,WeatherDisplay:10.37,2013-08-30 10:18:00,
2013-08-30 05:23:00,71.4,68.3,29.97,NW,315,0.0,0.0,90,0.00,CLR,,0.00,WeatherDisplay:10.37,2013-08-30 10:23:00,
2013-08-30 05:28:00,71.4,68.3,29.97,NW,315,0.0,0.0,90,0.00,CLR,,0.00,WeatherDisplay:10.37,2013-08-30 10:28:00,
2013-08-30 05:33:00,71.4,68.3,29.97,NW,315,0.0,0.0,90,0.00,CLR,,0.00,WeatherDisplay:10.37,2013-08-30 10:33:00,
2013-08-30 05:38:00,71.4,68.3,29.96,NW,315,0.0,0.0,90,0.00,CLR,,0.00,WeatherDisplay:10.37,2013-08-30 10:38:00,
2013-08-30 05:43:00,71.4,68.3,29.96,NW,315,0.0,0.0,90,0.00,CLR,,0.00,WeatherDisplay:10.37,2013-08-30 10:43:00,
2013-08-30 05:48:00,71.2,68.2,29.97,NW,315,0.0,0.0,90,0.00,CLR,,0.00,WeatherDisplay:10.37,2013-08-30 10:48:00,
2013-08-30 05:53:00,71.2,68.2,29.97,NW,315,0.0,0.0,90,0.00,CLR,,0.00,WeatherDisplay:10.37,2013-08-30 10:53:00,
2013-08-30 05:58:00,71.2,68.2,29.97,NW,315,0.0,0.0,90,0.00,CLR,,0.00,WeatherDisplay:10.37,2013-08-30 10:58:00,
2013-08-30 06:03:00,71.2,68.2,29.97,NW,315,0.0,0.0,90,0.00,CLR,,0.00,WeatherDisplay:10.37,2013-08-30 11:03:00,
2013-08-30 06:08:00,70.9,67.8,29.97,NW,315,0.0,0.0,90,0.00,CLR,,0.00,WeatherDisplay:10.37,2013-08-30 11:08:00,
2013-08-30 06:13:00,70.9,67.8,29.97,NW,315,0.0,0.0,90,0.00,CLR,,0.00,WeatherDisplay:10.37,2013-08-30 11:13:00,
2013-08-30 06:18:00,70.9,67.8,29.98,NW,315,0.0,0.0,90,0.00,CLR,,0.00,WeatherDisplay:10.37,2013-08-30 11:18:00,
2013-08-30 06:23:00,70.9,67.8,29.97,NW,315,0.0,0.0,90,0.00,CLR,,0.00,WeatherDisplay:10.37,2013-08-30 11:23:00,
2013-08-30 06:28:00,70.9,67.8,29.98,NW,315,0.0,0.0,90,0.00,CLR,,0.00,WeatherDisplay:10.37,2013-08-30 11:28:00,
2013-08-30 06:33:00,70.7,67.6,29.98,NW,315,0.0,0.0,90,0.00,CLR,,0.00,WeatherDisplay:10.37,2013-08-30 11:33:00,
2013-08-30 06:38:00,70.5,67.4,29.98,NW,315,0.0,0.0,90,0.00,CLR,,0.00,WeatherDisplay:10.37,2013-08-30 11:38:00,
2013-08-30 06:43:00,70.5,67.4,29.98,NW,315,0.0,0.0,90,0.00,CLR,,0.00,WeatherDisplay:10.37,2013-08-30 11:43:00,
2013-08-30 06:48:00,70.5,67.4,29.99,NW,315,0.0,0.0,90,0.00,CLR,,0.00,WeatherDisplay:10.37,2013-08-30 11:48:00,
2013-08-30 06:53:00,70.5,67.4,29.99,NW,315,0.0,0.0,90,0.00,CLR,,0.00,WeatherDisplay:10.37,2013-08-30 11:53:00,
2013-08-30 06:58:00,71.1,68.0,29.99,NW,315,0.0,0.0,90,0.00,CLR,,0.00,WeatherDisplay:10.37,2013-08-30 11:58:00,
2013-08-30 07:03:00,71.2,68.2,29.99,NW,315,0.0,0.0,90,0.00,CLR,,0.00,WeatherDisplay:10.37,2013-08-30 12:03:00,
2013-08-30 07:08:00,71.6,68.8,29.99,NW,315,0.0,0.0,91,0.00,CLR,,0.00,WeatherDisplay:10.37,2013-08-30 12:08:00,
2013-08-30 07:13:00,71.8,69.0,29.99,NW,315,0.0,0.0,91,0.00,CLR,,0.00,WeatherDisplay:10.37,2013-08-30 12:13:00,
2013-08-30 07:18:00,72.1,69.4,30.00,NW,315,0.0,0.0,91,0.00,CLR,,0.00,WeatherDisplay:10.37,2013-08-30 12:18:00,
2013-08-30 07:23:00,72.3,69.5,30.00,NW,315,0.0,0.0,91,0.00,CLR,,0.00,WeatherDisplay:10.37,2013-08-30 12:23:00,
2013-08-30 07:28:00,72.7,69.9,30.00,NW,315,0.0,0.0,91,0.00,CLR,,0.00,WeatherDisplay:10.37,2013-08-30 12:28:00,
2013-08-30 07:33:00,73.0,70.3,30.00,NW,315,0.0,0.0,91,0.00,CLR,,0.00,WeatherDisplay:10.37,2013-08-30 12:33:00,
2013-08-30 07:38:00,73.2,70.4,30.00,NW,315,0.0,0.0,91,0.00,CLR,,0.00,WeatherDisplay:10.37,2013-08-30 12:38:00,
2013-08-30 07:43:00,73.9,71.1,30.00,NW,315,0.0,0.0,91,0.00,CLR,,0.00,WeatherDisplay:10.37,2013-08-30 12:43:00,
2013-08-30 07:48:00,74.5,71.7,30.00,NW,315,0.0,0.0,91,0.00,CLR,,0.00,WeatherDisplay:10.37,2013-08-30 12:48:00,
2013-08-30 07:53:00,74.8,71.7,30.00,NW,315,0.0,0.0,90,0.00,CLR,,0.00,WeatherDisplay:10.37,2013-08-30 12:53:00,
2013-08-30 07:58:00,75.2,72.1,30.00,NW,315,0.0,0.0,90,0.00,CLR,,0.00,WeatherDisplay:10.37,2013-08-30 12:58:00,
2013-08-30 08:03:00,75.6,72.4,30.01,NW,315,0.0,0.0,90,0.00,CLR,,0.00,WeatherDisplay:10.37,2013-08-30 13:03:00,
2013-08-30 08:08:00,75.7,72.6,30.00,NW,315,0.0,0.0,90,0.00,CLR,,0.00,WeatherDisplay:10.37,2013-08-30 13:08:00,
2013-08-30 08:13:00,76.1,73.0,30.00,NW,315,0.0,0.0,90,0.00,CLR,,0.00,WeatherDisplay:10.37,2013-08-30 13:13:00,
2013-08-30 08:18:00,76.8,73.7,30.00,NW,315,0.0,0.0,90,0.00,CLR,,0.00,WeatherDisplay:10.37,2013-08-30 13:18:00,
2013-08-30 08:23:00,76.8,73.7,30.00,NW,315,0.0,0.0,90,0.00,CLR,,0.00,WeatherDisplay:10.37,2013-08-30 13:23:00,
2013-08-30 08:28:00,77.4,74.2,30.01,NW,315,0.0,0.0,90,0.00,CLR,,0.00,WeatherDisplay:10.37,2013-08-30 13:28:00,
2013-08-30 08:33:00,77.9,74.4,30.01,NW,315,0.0,0.0,89,0.00,CLR,,0.00,WeatherDisplay:10.37,2013-08-30 13:33:00,
2013-08-30 08:38:00,78.1,74.6,30.01,NW,315,0.0,0.0,89,0.00,CLR,,0.00,WeatherDisplay:10.37,2013-08-30 13:38:00,
2013-08-30 08:43:00,78.6,74.8,30.01,NW,315,0.0,0.0,88,0.00,CLR,,0.00,WeatherDisplay:10.37,2013-08-30 13:43:00,
2013-08-30 08:48:00,79.0,74.8,30.01,West,270,0.0,0.0,87,0.00,CLR,,0.00,WeatherDisplay:10.37,2013-08-30 13:48:00,
2013-08-30 08:53:00,79.2,74.6,30.01,NW,315,2.3,2.3,86,0.00,CLR,,0.00,WeatherDisplay:10.37,2013-08-30 13:53:00,
2013-08-30 08:58:00,79.3,74.8,30.01,NNE,22,1.2,1.2,86,0.00,CLR,,0.00,WeatherDisplay:10.37,2013-08-30 13:58:00,
2013-08-30 09:03:00,79.9,75.3,30.01,NW,315,0.0,0.0,86,0.00,CLR,,0.00,WeatherDisplay:10.37,2013-08-30 14:03:00,
2013-08-30 09:08:00,80.1,74.8,30.01,NW,315,0.0,0.0,84,0.00,CLR,,0.00,WeatherDisplay:10.37,2013-08-30 14:08:00,
2013-08-30 09:13:00,80.2,75.0,30.01,NW,315,0.0,0.0,84,0.00,CLR,,0.00,WeatherDisplay:10.37,2013-08-30 14:13:00,
2013-08-30 09:18:00,80.4,74.8,30.01,West,270,6.9,6.9,83,0.00,CLR,,0.00,WeatherDisplay:10.37,2013-08-30 14:18:00,
2013-08-30 09:23:00,80.8,75.1,30.01,WSW,248,1.2,1.2,83,0.00,CLR,,0.00,WeatherDisplay:10.37,2013-08-30 14:23:00,
2013-08-30 09:28:00,81.0,74.9,30.01,WSW,248,11.9,22.3,82,0.00,CLR,,0.00,WeatherDisplay:10.37,2013-08-30 14:28:00,
2013-08-30 09:33:00,81.3,74.9,30.01,WSW,248,0.0,0.0,81,0.00,CLR,,0.00,WeatherDisplay:10.37,2013-08-30 14:33:00,
2013-08-30 09:38:00,81.5,75.1,30.01,NW,315,0.0,0.0,81,0.00,CLR,,0.00,WeatherDisplay:10.37,2013-08-30 14:38:00,
2013-08-30 09:43:00,81.7,74.9,30.01,NW,315,0.0,0.0,80,0.00,CLR,,0.00,WeatherDisplay:10.37,2013-08-30 14:43:00,
2013-08-30 09:48:00,82.0,75.3,30.01,West,270,0.0,0.0,80,0.00,CLR,,0.00,WeatherDisplay:10.37,2013-08-30 14:48:00,
2013-08-30 09:53:00,82.2,74.7,30.01,NW,315,0.0,0.0,78,0.00,CLR,,0.00,WeatherDisplay:10.37,2013-08-30 14:53:00,
2013-08-30 09:58:00,82.2,74.3,30.01,NNE,22,3.5,6.1,77,0.00,CLR,,0.00,WeatherDisplay:10.37,2013-08-30 14:58:00,
2013-08-30 10:03:00,82.4,74.5,30.01,NE,45,4.9,5.9,77,0.00,CLR,,0.00,WeatherDisplay:10.37,2013-08-30 15:03:00,
2013-08-30 10:08:00,82.6,74.6,30.01,SW,225,7.1,7.1,77,0.00,CLR,,0.00,WeatherDisplay:10.37,2013-08-30 15:08:00,
2013-08-30 10:13:00,82.8,74.4,30.01,NNW,338,0.0,0.0,76,0.00,CLR,,0.00,WeatherDisplay:10.37,2013-08-30 15:13:00,
2013-08-30 10:18:00,82.9,74.6,30.01,NE,45,4.0,4.0,76,0.00,CLR,,0.00,WeatherDisplay:10.37,2013-08-30 15:18:00,
2013-08-30 10:23:00,83.1,74.8,30.01,NW,315,5.8,5.8,76,0.00,CLR,,0.00,WeatherDisplay:10.37,2013-08-30 15:23:00,
2013-08-30 10:28:00,83.3,74.9,30.01,WNW,292,0.0,0.0,76,0.00,CLR,,0.00,WeatherDisplay:10.37,2013-08-30 15:28:00,
2013-08-30 10:33:00,83.5,75.1,30.01,ENE,68,5.8,12.3,76,0.00,CLR,,0.00,WeatherDisplay:10.37,2013-08-30 15:33:00,
2013-08-30 10:38:00,83.8,75.1,30.01,NW,315,2.3,3.4,75,0.00,CLR,,0.00,WeatherDisplay:10.37,2013-08-30 15:38:00,
2013-08-30 10:43:00,84.0,75.2,30.00,NNW,338,0.0,0.0,75,0.00,CLR,,0.00,WeatherDisplay:10.37,2013-08-30 15:43:00,
2013-08-30 10:48:00,84.2,75.0,30.00,ENE,68,0.0,0.0,74,0.00,CLR,,0.00,WeatherDisplay:10.37,2013-08-30 15:48:00,
2013-08-30 10:53:00,84.4,75.2,30.00,West,270,0.0,0.0,74,0.00,CLR,,0.00,WeatherDisplay:10.37,2013-08-30 15:53:00,
2013-08-30 10:58:00,84.4,75.2,30.00,WSW,248,0.0,0.0,74,0.00,CLR,,0.00,WeatherDisplay:10.37,2013-08-30 15:58:00,
2013-08-30 11:03:00,84.7,75.1,30.00,ENE,68,0.0,0.0,73,0.00,CLR,,0.00,WeatherDisplay:10.37,2013-08-30 16:03:00,
2013-08-30 11:08:00,84.9,75.3,30.00,NE,45,0.0,0.0,73,0.00,CLR,,0.00,WeatherDisplay:10.37,2013-08-30 16:08:00,
2013-08-30 11:13:00,84.9,75.3,30.00,WSW,248,8.4,16.6,73,0.00,CLR,,0.00,WeatherDisplay:10.37,2013-08-30 16:13:00,
2013-08-30 11:18:00,85.1,75.5,30.00,WSW,248,0.0,0.0,73,0.00,CLR,,0.00,WeatherDisplay:10.37,2013-08-30 16:18:00,
2013-08-30 11:23:00,85.3,75.6,30.00,NNW,338,2.3,2.3,73,0.00,CLR,,0.00,WeatherDisplay:10.37,2013-08-30 16:23:00,
2013-08-30 11:28:00,85.5,75.8,30.00,NNW,338,0.0,0.0,73,0.00,CLR,,0.00,WeatherDisplay:10.37,2013-08-30 16:28:00,
2013-08-30 11:33:00,85.6,75.2,30.00,NNW,338,0.0,0.0,71,0.00,CLR,,0.00,WeatherDisplay:10.37,2013-08-30 16:33:00,
2013-08-30 11:38:00,85.8,75.3,30.00,WNW,292,2.3,4.4,71,0.00,CLR,,0.00,WeatherDisplay:10.37,2013-08-30 16:38:00,
2013-08-30 11:43:00,85.8,74.9,30.00,West,270,0.0,0.0,70,0.00,CLR,,0.00,WeatherDisplay:10.37,2013-08-30 16:43:00,
2013-08-30 11:48:00,86.0,75.1,29.99,West,270,4.6,8.8,70,0.00,CLR,,0.00,WeatherDisplay:10.37,2013-08-30 16:48:00,
2013-08-30 11:53:00,86.2,74.8,30.00,NNE,22,2.3,0.0,69,0.00,CLR,,0.00,WeatherDisplay:10.37,2013-08-30 16:53:00,
2013-08-30 11:58:00,86.2,74.8,29.99,SW,225,1.3,2.6,69,0.00,CLR,,0.00,WeatherDisplay:10.37,2013-08-30 16:58:00,
2013-08-30 12:03:00,86.2,74.8,29.99,North,0,4.9,4.9,69,0.00,CLR,,0.00,WeatherDisplay:10.37,2013-08-30 17:03:00,
2013-08-30 12:08:00,86.2,74.8,29.99,North,0,0.0,0.0,69,0.00,CLR,,0.00,WeatherDisplay:10.37,2013-08-30 17:08:00,
2013-08-30 12:13:00,86.5,75.2,29.99,NNW,338,2.2,0.0,69,0.00,CLR,,0.00,WeatherDisplay:10.37,2013-08-30 17:13:00,
2013-08-30 12:18:00,86.5,75.2,29.99,WSW,248,0.0,0.0,69,0.00,CLR,,0.00,WeatherDisplay:10.37,2013-08-30 17:18:00,
2013-08-30 12:23:00,86.7,75.3,29.99,NNW,338,2.3,0.0,69,0.00,CLR,,0.00,WeatherDisplay:10.37,2013-08-30 17:23:00,
2013-08-30 12:28:00,86.9,75.5,29.98,WNW,292,0.0,0.0,69,0.00,CLR,,0.00,WeatherDisplay:10.37,2013-08-30 17:28:00,
2013-08-30 12:33:00,86.9,75.1,29.97,West,270,6.9,13.1,68,0.00,CLR,,0.00,WeatherDisplay:10.37,2013-08-30 17:33:00,
2013-08-30 12:38:00,87.1,74.8,29.98,WSW,248,8.1,14.9,67,0.00,CLR,,0.00,WeatherDisplay:10.37,2013-08-30 17:38:00,
2013-08-30 12:43:00,87.3,75.0,29.97,West,270,0.0,0.8,67,0.00,CLR,,0.00,WeatherDisplay:10.37,2013-08-30 17:43:00,
2013-08-30 12:48:00,87.4,74.7,29.97,West,270,0.0,0.0,66,0.00,CLR,,0.00,WeatherDisplay:10.37,2013-08-30 17:48:00,
2013-08-30 12:53:00,87.6,75.3,29.97,West,270,2.3,0.0,67,0.00,CLR,,0.00,WeatherDisplay:10.37,2013-08-30 17:53:00,
2013-08-30 12:58:00,87.6,74.9,29.97,NW,315,6.9,14.0,66,0.00,CLR,,0.00,WeatherDisplay:10.37,2013-08-30 17:58:00,
2013-08-30 13:03:00,87.8,74.6,29.97,NNE,22,10.6,13.0,65,0.00,CLR,,0.00,WeatherDisplay:10.37,2013-08-30 18:03:00,
2013-08-30 13:08:00,88.0,74.7,29.97,North,0,3.5,3.5,65,0.00,CLR,,0.00,WeatherDisplay:10.37,2013-08-30 18:08:00,
2013-08-30 13:13:00,87.6,73.9,29.97,WSW,248,0.0,0.0,64,0.00,CLR,,0.00,WeatherDisplay:10.37,2013-08-30 18:13:00,
2013-08-30 13:18:00,88.0,74.7,29.97,NNW,338,2.3,2.3,65,0.00,CLR,,0.00,WeatherDisplay:10.37,2013-08-30 18:18:00,
2013-08-30 13:23:00,88.0,74.7,29.97,West,270,2.3,2.3,65,0.00,CLR,,0.00,WeatherDisplay:10.37,2013-08-30 18:23:00,
2013-08-30 13:28:00,88.3,75.1,29.97,WNW,292,2.7,5.3,65,0.00,CLR,,0.00,WeatherDisplay:10.37,2013-08-30 18:28:00,
2013-08-30 13:33:00,88.3,74.6,29.97,WNW,292,12.7,18.8,64,0.00,CLR,,0.00,WeatherDisplay:10.37,2013-08-30 18:33:00,
2013-08-30 13:38:00,88.5,75.2,29.97,SSW,202,3.5,6.9,65,0.00,CLR,,0.00,WeatherDisplay:10.37,2013-08-30 18:38:00,
2013-08-30 13:43:00,88.5,74.8,29.96,WSW,248,5.3,5.3,64,0.00,CLR,,0.00,WeatherDisplay:10.37,2013-08-30 18:43:00,
2013-08-30 13:48:00,88.7,74.5,29.96,WNW,292,0.0,0.0,63,0.00,CLR,,0.00,WeatherDisplay:10.37,2013-08-30 18:48:00,
2013-08-30 13:53:00,88.7,75.0,29.96,West,270,5.8,12.3,64,0.00,CLR,,0.00,WeatherDisplay:10.37,2013-08-30 18:53:00,
2013-08-30 13:58:00,88.9,75.1,29.96,WNW,292,0.0,0.0,64,0.00,CLR,,0.00,WeatherDisplay:10.37,2013-08-30 18:58:00,
2013-08-30 14:03:00,88.9,75.1,29.95,NNW,338,7.1,10.6,64,0.00,CLR,,0.00,WeatherDisplay:10.37,2013-08-30 19:03:00,
2013-08-30 14:08:00,89.2,75.0,29.95,South,180,0.0,0.0,63,0.00,CLR,,0.00,WeatherDisplay:10.37,2013-08-30 19:08:00,
2013-08-30 14:13:00,88.9,74.7,29.95,West,270,6.9,9.4,63,0.00,CLR,,0.00,WeatherDisplay:10.37,2013-08-30 19:13:00,
2013-08-30 14:18:00,89.2,75.0,29.95,West,270,0.0,0.0,63,0.00,CLR,,0.00,WeatherDisplay:10.37,2013-08-30 19:18:00,
2013-08-30 14:23:00,89.2,75.0,29.95,WSW,248,0.0,0.0,63,0.00,CLR,,0.00,WeatherDisplay:10.37,2013-08-30 19:23:00,
2013-08-30 14:28:00,89.2,75.0,29.95,West,270,0.0,0.0,63,0.00,CLR,,0.00,WeatherDisplay:10.37,2013-08-30 19:28:00,
2013-08-30 14:33:00,89.2,74.5,29.94,West,270,0.0,0.0,62,0.00,CLR,,0.00,WeatherDisplay:10.37,2013-08-30 19:33:00,
2013-08-30 14:38:00,89.2,74.5,29.94,NNW,338,3.5,6.1,62,0.00,CLR,,0.00,WeatherDisplay:10.37,2013-08-30 19:38:00,
2013-08-30 14:43:00,89.4,75.2,29.94,West,270,9.3,9.8,63,0.00,CLR,,0.00,WeatherDisplay:10.37,2013-08-30 19:43:00,
2013-08-30 14:48:00,89.4,74.7,29.94,NW,315,2.3,3.9,62,0.00,CLR,,0.00,WeatherDisplay:10.37,2013-08-30 19:48:00,
2013-08-30 14:53:00,89.4,74.7,29.94,WNW,292,2.3,0.0,62,0.00,CLR,,0.00,WeatherDisplay:10.37,2013-08-30 19:53:00,
2013-08-30 14:58:00,89.6,75.3,29.93,NW,315,3.5,6.0,63,0.00,CLR,,0.00,WeatherDisplay:10.37,2013-08-30 19:58:00,
2013-08-30 15:03:00,89.8,76.0,29.93,NW,315,2.3,4.9,64,0.00,CLR,,0.00,WeatherDisplay:10.37,2013-08-30 20:03:00,
2013-08-30 15:08:00,89.8,76.0,29.93,West,270,0.0,0.0,64,0.00,CLR,,0.00,WeatherDisplay:10.37,2013-08-30 20:08:00,
2013-08-30 15:13:00,89.8,76.4,29.92,WNW,292,0.0,0.0,65,0.00,CLR,,0.00,WeatherDisplay:10.37,2013-08-30 20:13:00,
2013-08-30 15:18:00,89.8,76.0,29.92,WNW,292,0.0,0.0,64,0.00,CLR,,0.00,WeatherDisplay:10.37,2013-08-30 20:18:00,
2013-08-30 15:23:00,89.8,76.0,29.91,NW,315,2.3,3.5,64,0.00,CLR,,0.00,WeatherDisplay:10.37,2013-08-30 20:23:00,
2013-08-30 15:28:00,90.0,76.1,29.91,NW,315,0.0,0.0,64,0.00,CLR,,0.00,WeatherDisplay:10.37,2013-08-30 20:28:00,
2013-08-30 15:33:00,90.0,76.1,29.91,North,0,4.6,0.0,64,0.00,CLR,,0.00,WeatherDisplay:10.37,2013-08-30 20:33:00,
2013-08-30 15:38:00,90.1,76.8,29.91,WNW,292,1.2,1.2,65,0.00,CLR,,0.00,WeatherDisplay:10.37,2013-08-30 20:38:00,
2013-08-30 15:43:00,90.1,76.8,29.91,ESE,112,2.3,4.3,65,0.00,CLR,,0.00,WeatherDisplay:10.37,2013-08-30 20:43:00,
2013-08-30 15:48:00,90.1,76.8,29.92,ESE,112,0.0,0.0,65,0.00,CLR,,0.00,WeatherDisplay:10.37,2013-08-30 20:48:00,
2013-08-30 15:53:00,90.1,77.2,29.91,ESE,112,0.0,0.0,66,0.00,CLR,,0.00,WeatherDisplay:10.37,2013-08-30 20:53:00,
2013-08-30 15:58:00,90.1,76.8,29.91,SSW,202,0.4,0.4,65,0.00,CLR,,0.00,WeatherDisplay:10.37,2013-08-30 20:58:00,
2013-08-30 16:03:00,90.1,76.8,29.91,NW,315,0.0,0.0,65,0.00,CLR,,0.00,WeatherDisplay:10.37,2013-08-30 21:03:00,
2013-08-30 16:08:00,90.1,77.2,29.91,NW,315,0.0,0.0,66,0.00,CLR,,0.00,WeatherDisplay:10.37,2013-08-30 21:08:00,
2013-08-30 16:13:00,90.0,76.6,29.91,NW,315,0.0,0.0,65,0.00,CLR,,0.00,WeatherDisplay:10.37,2013-08-30 21:13:00,
2013-08-30 16:18:00,90.0,76.6,29.92,West,270,4.9,7.5,65,0.00,CLR,,0.00,WeatherDisplay:10.37,2013-08-30 21:18:00,
2013-08-30 16:23:00,90.0,77.1,29.92,West,270,1.2,0.0,66,0.00,CLR,,0.00,WeatherDisplay:10.37,2013-08-30 21:23:00,
2013-08-30 16:28:00,89.8,76.9,29.92,NW,315,2.2,2.2,66,0.00,CLR,,0.00,WeatherDisplay:10.37,2013-08-30 21:28:00,
2013-08-30 16:33:00,89.8,76.9,29.91,NW,315,0.0,0.0,66,0.00,CLR,,0.00,WeatherDisplay:10.37,2013-08-30 21:33:00,
2013-08-30 16:38:00,89.6,76.7,29.91,NW,315,0.0,0.0,66,0.00,CLR,,0.00,WeatherDisplay:10.37,2013-08-30 21:38:00,
2013-08-30 16:43:00,89.4,76.6,29.91,NNW,338,1.2,1.3,66,0.00,CLR,,0.00,WeatherDisplay:10.37,2013-08-30 21:43:00,
2013-08-30 16:48:00,89.4,76.6,29.91,NNW,338,0.0,0.0,66,0.00,CLR,,0.00,WeatherDisplay:10.37,2013-08-30 21:48:00,
2013-08-30 16:53:00,89.2,76.4,29.91,NNW,338,0.0,0.0,66,0.00,CLR,,0.00,WeatherDisplay:10.37,2013-08-30 21:53:00,
2013-08-30 16:58:00,89.2,76.8,29.91,NNW,338,2.3,2.3,67,0.00,CLR,,0.00,WeatherDisplay:10.37,2013-08-30 21:58:00,
2013-08-30 17:03:00,89.2,77.3,29.91,NNW,338,0.0,0.0,68,0.00,CLR,,0.00,WeatherDisplay:10.37,2013-08-30 22:03:00,
2013-08-30 17:08:00,89.1,77.6,29.91,NNW,338,0.0,0.0,69,0.00,CLR,,0.00,WeatherDisplay:10.37,2013-08-30 22:08:00,
2013-08-30 17:13:00,88.9,77.4,29.91,NNW,338,0.0,0.0,69,0.00,CLR,,0.00,WeatherDisplay:10.37,2013-08-30 22:13:00,
2013-08-30 17:19:00,88.9,76.9,29.90,NNW,338,0.0,0.0,68,0.00,CLR,,0.00,WeatherDisplay:10.37,2013-08-30 22:19:00,
2013-08-30 17:24:00,88.7,76.8,29.90,NNW,338,2.3,3.5,68,0.00,CLR,,0.00,WeatherDisplay:10.37,2013-08-30 22:24:00,
2013-08-30 17:29:00,88.5,76.6,29.90,NNW,338,0.0,0.0,68,0.00,CLR,,0.00,WeatherDisplay:10.37,2013-08-30 22:29:00,
2013-08-30 17:34:00,88.3,76.4,29.90,NNW,338,0.0,0.0,68,0.00,CLR,,0.00,WeatherDisplay:10.37,2013-08-30 22:34:00,
2013-08-30 17:39:00,88.2,76.7,29.90,WNW,292,0.0,0.0,69,0.00,CLR,,0.00,WeatherDisplay:10.37,2013-08-30 22:39:00,
2013-08-30 17:44:00,87.8,76.4,29.90,WNW,292,0.0,0.0,69,0.00,CLR,,0.00,WeatherDisplay:10.37,2013-08-30 22:44:00,
2013-08-30 17:49:00,87.6,76.2,29.91,WNW,292,0.0,0.0,69,0.00,CLR,,0.00,WeatherDisplay:10.37,2013-08-30 22:49:00,
2013-08-30 17:54:00,87.4,76.4,29.90,WNW,292,0.0,0.0,70,0.00,CLR,,0.00,WeatherDisplay:10.37,2013-08-30 22:54:00,
2013-08-30 17:59:00,87.3,76.3,29.90,WNW,292,0.0,0.0,70,0.00,CLR,,0.00,WeatherDisplay:10.37,2013-08-30 22:59:00,
2013-08-30 18:04:00,87.1,76.1,29.90,WNW,292,0.0,0.0,70,0.00,CLR,,0.00,WeatherDisplay:10.37,2013-08-30 23:04:00,
2013-08-30 18:09:00,86.9,76.4,29.90,WNW,292,0.0,0.0,71,0.00,CLR,,0.00,WeatherDisplay:10.37,2013-08-30 23:09:00,
2013-08-30 18:14:00,86.7,76.2,29.90,WNW,292,0.0,0.0,71,0.00,CLR,,0.00,WeatherDisplay:10.37,2013-08-30 23:14:00,
2013-08-30 18:19:00,86.5,76.4,29.90,WNW,292,0.0,0.0,72,0.00,CLR,,0.00,WeatherDisplay:10.37,2013-08-30 23:19:00,
2013-08-30 18:24:00,86.4,75.8,29.90,WNW,292,0.0,0.0,71,0.00,CLR,,0.00,WeatherDisplay:10.37,2013-08-30 23:24:00,
2013-08-30 18:29:00,86.0,75.5,29.90,WNW,292,0.0,0.0,71,0.00,CLR,,0.00,WeatherDisplay:10.37,2013-08-30 23:29:00,
2013-08-30 18:34:00,85.8,75.7,29.89,WNW,292,0.0,0.0,72,0.00,CLR,,0.00,WeatherDisplay:10.37,2013-08-30 23:34:00,
2013-08-30 18:39:00,85.6,75.6,29.89,WNW,292,0.0,0.0,72,0.00,CLR,,0.00,WeatherDisplay:10.37,2013-08-30 23:39:00,
2013-08-30 18:44:00,85.3,75.6,29.89,WNW,292,0.0,0.0,73,0.00,CLR,,0.00,WeatherDisplay:10.37,2013-08-30 23:44:00,
2013-08-30 18:49:00,85.3,75.6,29.89,WNW,292,0.0,0.0,73,0.00,CLR,,0.00,WeatherDisplay:10.37,2013-08-30 23:49:00,
2013-08-30 18:54:00,84.7,75.1,29.89,WNW,292,0.0,0.0,73,0.00,CLR,,0.00,WeatherDisplay:10.37,2013-08-30 23:54:00,
2013-08-30 18:59:00,84.6,75.4,29.89,WNW,292,0.0,0.0,74,0.00,CLR,,0.00,WeatherDisplay:10.37,2013-08-30 23:59:00,
2013-08-30 19:04:00,84.4,75.2,29.90,WNW,292,0.0,0.0,74,0.00,CLR,,0.00,WeatherDisplay:10.37,2013-08-31 00:04:00,
2013-08-30 19:09:00,84.0,75.2,29.90,WNW,292,0.0,0.0,75,0.00,CLR,,0.00,WeatherDisplay:10.37,2013-08-31 00:09:00,
2013-08-30 19:14:00,83.8,75.5,29.90,WNW,292,0.0,0.0,76,0.00,CLR,,0.00,WeatherDisplay:10.37,2013-08-31 00:14:00,
2013-08-30 19:19:00,83.5,75.1,29.90,WNW,292,0.0,0.0,76,0.00,CLR,,0.00,WeatherDisplay:10.37,2013-08-31 00:19:00,
2013-08-30 19:24:00,83.3,74.9,29.90,WNW,292,0.0,0.0,76,0.00,CLR,,0.00,WeatherDisplay:10.37,2013-08-31 00:24:00,
2013-08-30 19:29:00,83.1,75.2,29.90,WNW,292,0.0,0.0,77,0.00,CLR,,0.00,WeatherDisplay:10.37,2013-08-31 00:29:00,
2013-08-30 19:34:00,82.6,74.6,29.90,WNW,292,0.0,0.0,77,0.00,CLR,,0.00,WeatherDisplay:10.37,2013-08-31 00:34:00,
2013-08-30 19:40:00,82.4,74.8,29.90,WNW,292,0.0,0.0,78,0.00,CLR,,0.00,WeatherDisplay:10.37,2013-08-31 00:40:00,
2013-08-30 19:45:00,82.2,74.7,29.90,WNW,292,0.0,0.0,78,0.00,CLR,,0.00,WeatherDisplay:10.37,2013-08-31 00:45:00,
2013-08-30 19:50:00,81.9,74.7,29.89,WNW,292,0.0,0.0,79,0.00,CLR,,0.00,WeatherDisplay:10.37,2013-08-31 00:50:00,
2013-08-30 19:55:00,81.7,74.5,29.89,WNW,292,0.0,0.0,79,0.00,CLR,,0.00,WeatherDisplay:10.37,2013-08-31 00:55:00,
2013-08-30 20:00:00,81.5,74.7,29.90,WNW,292,0.0,0.0,80,0.00,CLR,,0.00,WeatherDisplay:10.37,2013-08-31 01:00:00,
2013-08-30 20:05:00,81.3,74.6,29.90,WNW,292,0.0,0.0,80,0.00,CLR,,0.00,WeatherDisplay:10.37,2013-08-31 01:05:00,
2013-08-30 20:10:00,81.1,74.4,29.90,WNW,292,0.0,0.0,80,0.00,CLR,,0.00,WeatherDisplay:10.37,2013-08-31 01:10:00,
2013-08-30 20:15:00,81.1,74.4,29.91,WNW,292,0.0,0.0,80,0.00,CLR,,0.00,WeatherDisplay:10.37,2013-08-31 01:15:00,
2013-08-30 20:20:00,81.0,74.2,29.91,WNW,292,0.0,0.0,80,0.00,CLR,,0.00,WeatherDisplay:10.37,2013-08-31 01:20:00,
2013-08-30 20:25:00,80.8,74.4,29.91,WNW,292,0.0,0.0,81,0.00,CLR,,0.00,WeatherDisplay:10.37,2013-08-31 01:25:00,
2013-08-30 20:30:00,80.6,74.2,29.91,WNW,292,0.0,0.0,81,0.00,CLR,,0.00,WeatherDisplay:10.37,2013-08-31 01:30:00,
2013-08-30 20:35:00,80.4,74.1,29.91,WNW,292,0.0,0.0,81,0.00,CLR,,0.00,WeatherDisplay:10.37,2013-08-31 01:35:00,
2013-08-30 20:40:00,80.4,74.1,29.91,WNW,292,0.0,0.0,81,0.00,CLR,,0.00,WeatherDisplay:10.37,2013-08-31 01:40:00,
2013-08-30 20:45:00,80.2,73.9,29.91,WNW,292,0.0,0.0,81,0.00,CLR,,0.00,WeatherDisplay:10.37,2013-08-31 01:45:00,
2013-08-30 20:50:00,80.2,73.9,29.91,WNW,292,0.0,0.0,81,0.00,CLR,,0.00,WeatherDisplay:10.37,2013-08-31 01:50:00,
2013-08-30 20:55:00,80.1,73.7,29.91,WNW,292,0.0,0.0,81,0.00,CLR,,0.00,WeatherDisplay:10.37,2013-08-31 01:55:00,
2013-08-30 21:00:00,79.9,73.9,29.91,WNW,292,0.0,0.0,82,0.00,CLR,,0.00,WeatherDisplay:10.37,2013-08-31 02:00:00,
2013-08-30 21:05:00,79.7,73.7,29.91,WNW,292,0.0,0.0,82,0.00,CLR,,0.00,WeatherDisplay:10.37,2013-08-31 02:05:00,
2013-08-30 21:10:00,79.5,73.9,29.91,WNW,292,0.0,0.0,83,0.00,CLR,,0.00,WeatherDisplay:10.37,2013-08-31 02:10:00,
2013-08-30 21:15:00,79.3,73.7,29.91,WNW,292,0.0,0.0,83,0.00,CLR,,0.00,WeatherDisplay:10.37,2013-08-31 02:15:00,
2013-08-30 21:20:00,79.2,73.9,29.91,WNW,292,0.0,0.0,84,0.00,CLR,,0.00,WeatherDisplay:10.37,2013-08-31 02:20:00,
2013-08-30 21:25:00,79.0,73.7,29.91,WNW,292,0.0,0.0,84,0.00,CLR,,0.00,WeatherDisplay:10.37,2013-08-31 02:25:00,
2013-08-30 21:30:00,78.8,73.6,29.91,WNW,292,0.0,0.0,84,0.00,CLR,,0.00,WeatherDisplay:10.37,2013-08-31 02:30:00,
2013-08-30 21:35:00,78.6,73.4,29.91,WNW,292,0.0,0.0,84,0.00,CLR,,0.00,WeatherDisplay:10.37,2013-08-31 02:35:00,
2013-08-30 21:40:00,78.6,73.7,29.91,WNW,292,0.0,0.0,85,0.00,CLR,,0.00,WeatherDisplay:10.37,2013-08-31 02:40:00,
2013-08-30 21:45:00,78.6,73.7,29.91,WNW,292,0.0,0.0,85,0.00,CLR,,0.00,WeatherDisplay:10.37,2013-08-31 02:45:00,
2013-08-30 21:50:00,78.6,73.7,29.91,WNW,292,0.0,0.0,85,0.00,CLR,,0.00,WeatherDisplay:10.37,2013-08-31 02:50:00,
2013-08-30 21:55:00,78.6,73.7,29.91,WNW,292,0.0,0.0,85,0.00,CLR,,0.00,WeatherDisplay:10.37,2013-08-31 02:55:00,
2013-08-30 22:00:00,78.4,73.9,29.91,WNW,292,0.0,0.0,86,0.00,CLR,,0.00,WeatherDisplay:10.37,2013-08-31 03:00:00,
2013-08-30 22:05:00,78.4,73.9,29.91,WNW,292,0.0,0.0,86,0.00,CLR,,0.00,WeatherDisplay:10.37,2013-08-31 03:05:00,
2013-08-30 22:10:00,78.3,73.7,29.91,WNW,292,0.0,0.0,86,0.00,CLR,,0.00,WeatherDisplay:10.37,2013-08-31 03:10:00,
2013-08-30 22:15:00,78.1,73.5,29.92,WNW,292,0.0,0.0,86,0.00,CLR,,0.00,WeatherDisplay:10.37,2013-08-31 03:15:00,
2013-08-30 22:20:00,78.1,73.5,29.92,WNW,292,0.0,0.0,86,0.00,CLR,,0.00,WeatherDisplay:10.37,2013-08-31 03:20:00,
2013-08-30 22:25:00,78.1,73.5,29.92,WNW,292,0.0,0.0,86,0.00,CLR,,0.00,WeatherDisplay:10.37,2013-08-31 03:25:00,
2013-08-30 22:30:00,77.9,73.4,29.92,WNW,292,0.0,0.0,86,0.00,CLR,,0.00,WeatherDisplay:10.37,2013-08-31 03:30:00,
2013-08-30 22:36:00,77.9,73.4,29.92,WNW,292,0.0,0.0,86,0.00,CLR,,0.00,WeatherDisplay:10.37,2013-08-31 03:36:00,
2013-08-30 22:41:00,77.7,73.2,29.92,WNW,292,0.0,0.0,86,0.00,CLR,,0.00,WeatherDisplay:10.37,2013-08-31 03:41:00,
2013-08-30 22:46:00,77.7,73.5,29.92,WNW,292,0.0,0.0,87,0.00,CLR,,0.00,WeatherDisplay:10.37,2013-08-31 03:46:00,
2013-08-30 22:51:00,77.7,73.5,29.92,WNW,292,0.0,0.0,87,0.00,CLR,,0.00,WeatherDisplay:10.37,2013-08-31 03:51:00,
2013-08-30 22:56:00,77.5,73.4,29.92,WNW,292,0.0,0.0,87,0.00,CLR,,0.00,WeatherDisplay:10.37,2013-08-31 03:56:00,
2013-08-30 23:01:00,77.5,73.4,29.92,WNW,292,0.0,0.0,87,0.00,CLR,,0.00,WeatherDisplay:10.37,2013-08-31 04:01:00,
2013-08-30 23:02:00,77.5,73.4,29.92,WNW,292,0.0,0.0,87,0.00,CLR,,0.00,WeatherDisplay:10.37,2013-08-31 04:02:00,
2013-08-30 23:03:00,77.5,73.4,29.92,WNW,292,0.0,0.0,87,0.00,CLR,,0.00,WeatherDisplay:10.37,2013-08-31 04:03:00,
2013-08-30 23:08:00,77.5,73.4,29.91,WNW,292,0.0,0.0,87,0.00,CLR,,0.00,WeatherDisplay:10.37,2013-08-31 04:08:00,
2013-08-30 23:11:00,77.4,73.2,29.91,WNW,292,0.0,0.0,87,0.00,CLR,,0.00,WeatherDisplay:10.37,2013-08-31 04:11:00,
2013-08-30 23:16:00,77.4,73.2,29.91,WNW,292,0.0,0.0,87,0.00,CLR,,0.00,WeatherDisplay:10.37,2013-08-31 04:16:00,
2013-08-30 23:21:00,77.2,73.0,29.91,WNW,292,0.0,0.0,87,0.00,CLR,,0.00,WeatherDisplay:10.37,2013-08-31 04:21:00,
2013-08-30 23:26:00,77.2,73.0,29.91,WNW,292,0.0,0.0,87,0.00,CLR,,0.00,WeatherDisplay:10.37,2013-08-31 04:26:00,
2013-08-30 23:31:00,77.2,73.3,29.91,WNW,292,0.0,0.0,88,0.00,CLR,,0.00,WeatherDisplay:10.37,2013-08-31 04:31:00,
2013-08-30 23:36:00,77.2,73.3,29.91,WNW,292,0.0,0.0,88,0.00,CLR,,0.00,WeatherDisplay:10.37,2013-08-31 04:36:00,
2013-08-30 23:41:00,77.0,73.2,29.91,WNW,292,0.0,0.0,88,0.00,CLR,,0.00,WeatherDisplay:10.37,2013-08-31 04:41:00,
2013-08-30 23:46:00,76.8,73.0,29.91,WNW,292,0.0,0.0,88,0.00,CLR,,0.00,WeatherDisplay:10.37,2013-08-31 04:46:00,
2013-08-30 23:51:00,76.8,73.0,29.91,WNW,292,0.0,0.0,88,0.00,CLR,,0.00,WeatherDisplay:10.37,2013-08-31 04:51:00,
2013-08-30 23:57:00,76.8,73.0,29.90,WNW,292,0.0,0.0,88,0.00,CLR,,0.00,WeatherDisplay:10.37,2013-08-31 04:57:00,